createdAt,value
2017-06-17T06:36:10.942Z,100.000
2017-06-17T06:38:54.352Z,100.000
2017-06-17T06:42:33.162Z,100.000
2017-06-17T06:47:46.010Z,100.000
2017-06-17T06:50:30.208Z,100.000
2017-06-17T06:53:24.662Z,100.000
2017-06-17T06:58:01.085Z,100.000
2017-06-17T07:08:17.741Z,100.000
2017-06-17T07:11:01.294Z,100.000
2017-06-17T07:13:55.173Z,100.000
2017-06-17T07:16:49.710Z,100.000
2017-06-17T07:23:30.354Z,100.000
2017-06-17T07:26:14.356Z,100.000
2017-06-17T07:29:09.151Z,100.000
2017-06-17T07:32:03.499Z,100.000
2017-06-17T07:35:09.600Z,100.000
2017-06-17T07:38:10.831Z,100.000
2017-06-17T07:45:20.608Z,100.000
2017-06-17T07:48:04.625Z,100.000
2017-06-17T07:50:58.727Z,100.000
2017-06-17T07:53:53.379Z,100.000
2017-06-17T07:56:48.185Z,100.000
2017-06-17T07:59:43.018Z,100.000
2017-06-17T08:02:38.024Z,100.000
2017-06-17T08:05:32.882Z,100.000
2017-06-17T08:08:29.549Z,100.000
2017-06-17T08:11:22.782Z,100.000
2017-06-17T08:14:17.764Z,100.000
2017-06-17T08:17:12.599Z,100.000
2017-06-17T08:20:07.590Z,100.000
2017-06-17T08:23:02.449Z,100.000
2017-06-17T08:25:57.437Z,100.000
2017-06-17T08:28:52.349Z,100.000
2017-06-17T08:31:47.433Z,100.000
2017-06-17T08:34:42.260Z,100.000
2017-06-17T08:37:37.260Z,100.000
2017-06-17T08:40:32.078Z,100.000
2017-06-17T08:43:26.996Z,100.000
2017-06-17T08:46:21.946Z,100.000
2017-06-17T08:49:16.890Z,100.000
2017-06-17T08:52:11.814Z,100.000
2017-06-17T08:55:06.775Z,100.000
2017-06-17T08:58:01.763Z,100.000
2017-06-17T09:00:56.829Z,100.000
2017-06-17T09:03:51.912Z,100.000
2017-06-17T09:06:47.025Z,100.000
2017-06-17T09:09:42.100Z,100.000
2017-06-17T09:12:37.211Z,100.000
2017-06-17T09:15:33.764Z,100.000
2017-06-17T09:18:27.069Z,100.000
2017-06-17T09:21:22.104Z,100.000
2017-06-17T09:24:17.297Z,100.000
2017-06-17T09:27:12.360Z,100.000
2017-06-17T09:30:07.513Z,100.000
2017-06-17T09:33:02.614Z,100.000
2017-06-17T09:35:57.731Z,100.000
2017-06-17T09:38:52.777Z,100.000
2017-06-17T09:41:47.836Z,100.000
2017-06-17T09:44:42.956Z,100.000
2017-06-17T09:47:38.238Z,100.000
2017-06-17T09:50:33.563Z,100.000
2017-06-17T09:53:28.869Z,100.000
2017-06-17T09:56:24.037Z,100.000
2017-06-17T09:59:19.398Z,100.000
2017-06-17T10:02:14.743Z,100.000
2017-06-17T10:05:10.138Z,100.000
2017-06-17T10:08:05.923Z,100.000
2017-06-17T10:11:02.109Z,100.000
2017-06-17T10:13:58.110Z,100.000
2017-06-17T10:16:54.021Z,100.000
2017-06-17T10:19:50.087Z,100.000
2017-06-17T10:22:46.251Z,98.746
2017-06-17T10:25:43.917Z,92.357
2017-06-17T10:28:38.306Z,98.120
2017-06-17T10:31:34.197Z,90.602
2017-06-17T10:34:29.845Z,83.645
2017-06-17T10:37:25.291Z,92.063
2017-06-17T10:40:20.846Z,93.458
2017-06-17T10:43:18.092Z,88.943
2017-06-17T10:46:11.922Z,92.227
2017-06-17T10:49:07.483Z,91.064
2017-06-17T10:52:02.995Z,96.803
2017-06-17T10:55:00.255Z,100.000
2017-06-17T10:57:54.131Z,100.000
2017-06-17T11:00:49.686Z,97.045
2017-06-17T11:03:45.242Z,100.000
2017-06-17T11:06:40.732Z,100.000
2017-06-17T11:09:36.280Z,100.000
2017-06-17T11:12:31.738Z,100.000
2017-06-17T11:15:27.244Z,100.000
2017-06-17T11:18:24.310Z,100.000
2017-06-17T11:21:19.756Z,100.000
2017-06-17T11:24:13.764Z,100.000
2017-06-17T11:27:09.212Z,100.000
2017-06-17T11:30:04.725Z,100.000
2017-06-17T11:33:00.289Z,100.000
2017-06-17T11:35:55.732Z,100.000
2017-06-17T11:38:51.214Z,100.000
2017-06-17T11:41:46.776Z,100.000
2017-06-17T11:44:42.184Z,100.000
2017-06-17T11:47:37.599Z,100.000
2017-06-17T11:50:32.930Z,100.000
2017-06-17T11:53:28.365Z,100.000
2017-06-17T11:56:23.730Z,100.000
2017-06-17T11:59:19.225Z,100.000
2017-06-17T12:02:14.678Z,100.000
2017-06-17T12:05:10.142Z,100.000
2017-06-17T12:08:05.549Z,100.000
2017-06-17T12:11:01.034Z,100.000
2017-06-17T12:13:56.587Z,100.000
2017-06-17T12:16:52.125Z,100.000
2017-06-17T12:19:47.561Z,100.000
2017-06-17T12:22:43.026Z,100.000
2017-06-17T12:25:38.455Z,100.000
2017-06-17T12:28:33.841Z,100.000
2017-06-17T12:31:29.243Z,100.000
2017-06-17T12:34:24.700Z,100.000
2017-06-17T12:37:20.139Z,100.000
2017-06-17T12:40:15.646Z,100.000
2017-06-17T12:43:11.135Z,100.000
2017-06-17T12:46:06.607Z,100.000
2017-06-17T12:49:01.979Z,100.000
2017-06-17T12:51:59.144Z,100.000
2017-06-17T12:54:53.247Z,100.000
2017-06-17T12:57:48.674Z,100.000
2017-06-17T13:00:44.041Z,100.000
2017-06-17T13:03:39.386Z,100.000
2017-06-17T13:06:34.840Z,100.000
2017-06-17T13:09:30.270Z,100.000
2017-06-17T13:12:25.695Z,100.000
2017-06-17T13:15:21.101Z,100.000
2017-06-17T13:18:16.484Z,100.000
2017-06-17T13:21:12.122Z,100.000
2017-06-17T13:24:09.431Z,100.000
2017-06-17T13:27:03.107Z,100.000
2017-06-17T13:29:58.639Z,100.000
2017-06-17T13:32:54.099Z,100.000
2017-06-17T13:35:49.620Z,100.000
2017-06-17T13:38:45.058Z,100.000
2017-06-17T13:41:40.358Z,100.000
2017-06-17T13:44:35.800Z,100.000
2017-06-17T13:47:31.216Z,100.000
2017-06-17T13:50:26.682Z,100.000
2017-06-17T13:53:22.192Z,100.000
2017-06-17T13:56:17.621Z,100.000
2017-06-17T13:59:13.066Z,100.000
2017-06-17T14:02:08.525Z,100.000
2017-06-17T14:05:03.956Z,100.000
2017-06-17T14:07:59.461Z,100.000
2017-06-17T14:10:54.923Z,100.000
2017-06-17T14:13:50.374Z,100.000
2017-06-17T14:16:45.794Z,100.000
2017-06-17T14:19:42.973Z,100.000
2017-06-17T14:22:36.849Z,100.000
2017-06-17T14:25:32.318Z,100.000
2017-06-17T14:28:27.715Z,100.000
2017-06-17T14:31:23.158Z,100.000
2017-06-17T14:34:18.618Z,100.000
2017-06-17T14:37:14.078Z,100.000
2017-06-17T14:40:09.408Z,100.000
2017-06-17T14:43:04.935Z,100.000
2017-06-17T14:46:00.381Z,100.000
2017-06-17T14:48:55.802Z,100.000
2017-06-17T14:51:51.163Z,100.000
2017-06-17T14:54:46.602Z,100.000
2017-06-17T14:57:42.403Z,100.000
2017-06-17T15:00:37.684Z,100.000
2017-06-17T15:03:33.317Z,100.000
2017-06-17T15:06:28.591Z,100.000
2017-06-17T15:09:24.016Z,100.000
2017-06-17T15:12:19.468Z,100.000
2017-06-17T15:15:14.841Z,100.000
2017-06-17T15:18:10.246Z,100.000
2017-06-17T15:21:05.697Z,100.000
2017-06-17T15:24:01.215Z,100.000
2017-06-17T15:26:56.666Z,100.000
2017-06-17T15:29:52.168Z,100.000
2017-06-17T15:32:48.233Z,100.000
2017-06-17T15:35:44.917Z,100.000
2017-06-17T15:38:38.675Z,100.000
2017-06-17T15:41:33.982Z,99.458
2017-06-17T15:44:29.388Z,100.000
2017-06-17T15:47:25.203Z,100.000
2017-06-17T15:50:20.654Z,100.000
2017-06-17T15:53:16.105Z,100.000
2017-06-17T15:56:11.655Z,100.000
2017-06-17T15:59:07.082Z,100.000
2017-06-17T16:02:02.453Z,100.000
2017-06-17T16:04:57.884Z,100.000
2017-06-17T16:07:53.300Z,100.000
2017-06-17T16:10:50.424Z,100.000
2017-06-17T16:13:44.153Z,100.000
2017-06-17T16:16:39.619Z,100.000
2017-06-17T16:19:35.084Z,100.000
2017-06-17T16:22:30.473Z,100.000
2017-06-17T16:25:25.855Z,100.000
2017-06-17T16:28:21.291Z,100.000
2017-06-17T16:31:16.693Z,100.000
2017-06-17T16:34:12.161Z,100.000
2017-06-17T16:37:07.571Z,100.000
2017-06-17T16:40:03.010Z,100.000
2017-06-17T16:42:58.372Z,100.000
2017-06-17T16:45:53.717Z,100.000
2017-06-17T16:48:49.151Z,100.000
2017-06-17T16:51:44.479Z,100.000
2017-06-17T16:54:39.947Z,100.000
2017-06-17T16:57:35.296Z,100.000
2017-06-17T17:00:30.727Z,100.000
2017-06-17T17:03:26.100Z,100.000
2017-06-17T17:06:21.629Z,100.000
2017-06-17T17:09:17.087Z,100.000
2017-06-17T17:12:12.626Z,100.000
2017-06-17T17:15:08.030Z,100.000
2017-06-17T17:18:03.560Z,100.000
2017-06-17T17:20:59.033Z,100.000
2017-06-17T17:23:54.427Z,100.000
2017-06-17T17:26:49.813Z,100.000
2017-06-17T17:29:45.321Z,100.000
2017-06-17T17:32:51.982Z,100.000
2017-06-17T17:35:42.599Z,100.000
2017-06-17T17:38:37.957Z,100.000
2017-06-17T17:41:33.427Z,100.000
2017-06-17T17:44:28.732Z,100.000
2017-06-17T17:47:24.335Z,100.000
2017-06-17T17:50:20.081Z,100.000
2017-06-17T17:53:17.167Z,100.000
2017-06-17T17:56:12.614Z,100.000
2017-06-17T17:59:06.397Z,100.000
2017-06-17T18:02:01.748Z,100.000
2017-06-17T18:04:57.427Z,100.000
2017-06-17T18:07:54.549Z,100.000
2017-06-17T18:10:48.287Z,100.000
2017-06-17T18:13:43.620Z,100.000
2017-06-17T18:16:39.159Z,100.000
2017-06-17T18:19:34.526Z,100.000
2017-06-17T18:22:29.867Z,100.000
2017-06-17T18:25:25.360Z,100.000
2017-06-17T18:28:20.771Z,100.000
2017-06-17T18:31:16.233Z,100.000
2017-06-17T18:34:11.795Z,100.000
2017-06-17T18:37:07.312Z,100.000
2017-06-17T18:40:02.503Z,100.000
2017-06-17T18:42:58.183Z,100.000
2017-06-17T18:45:53.446Z,100.000
2017-06-17T18:48:48.841Z,100.000
2017-06-17T18:51:44.229Z,100.000
2017-06-17T18:54:39.630Z,100.000
2017-06-17T18:57:34.968Z,100.000
2017-06-17T19:00:30.394Z,100.000
2017-06-17T19:03:25.776Z,100.000
2017-06-17T19:06:21.171Z,100.000
2017-06-17T19:09:16.463Z,100.000
2017-06-17T19:12:11.778Z,100.000
2017-06-17T19:15:07.154Z,100.000
2017-06-17T19:18:02.545Z,100.000
2017-06-17T19:20:57.879Z,100.000
2017-06-17T19:23:53.334Z,100.000
2017-06-17T19:26:48.655Z,100.000
2017-06-17T19:29:44.240Z,100.000
2017-06-17T19:32:39.425Z,100.000
2017-06-17T19:35:34.899Z,100.000
2017-06-17T19:38:29.942Z,100.000
2017-06-17T19:41:25.179Z,100.000
2017-06-17T19:44:20.788Z,100.000
2017-06-17T19:47:16.455Z,100.000
2017-06-17T19:50:11.795Z,100.000
2017-06-17T19:53:07.243Z,100.000
2017-06-17T19:56:02.383Z,100.000
2017-06-17T19:58:57.744Z,100.000
2017-06-17T20:01:52.934Z,100.000
2017-06-17T20:04:48.475Z,100.000
2017-06-17T20:07:43.556Z,100.000
2017-06-17T20:10:38.798Z,100.000
2017-06-17T20:13:35.730Z,100.000
2017-06-17T20:16:29.317Z,100.000
2017-06-17T20:19:24.659Z,100.000
2017-06-17T20:22:19.945Z,100.000
2017-06-17T20:25:15.137Z,100.000
2017-06-17T20:28:10.355Z,100.000
2017-06-17T20:31:05.605Z,100.000
2017-06-17T20:34:00.937Z,100.000
2017-06-17T20:36:56.190Z,100.000
2017-06-17T20:39:51.385Z,100.000
2017-06-17T20:42:46.578Z,100.000
2017-06-17T20:45:41.696Z,100.000
2017-06-17T20:48:36.857Z,100.000
2017-06-17T20:51:31.940Z,100.000
2017-06-17T20:54:27.212Z,100.000
2017-06-17T20:57:24.044Z,100.000
2017-06-17T21:00:17.529Z,100.000
2017-06-17T21:03:12.733Z,100.000
2017-06-17T21:06:08.151Z,100.000
2017-06-17T21:09:03.357Z,100.000
2017-06-17T21:11:58.599Z,100.000
2017-06-17T21:14:53.730Z,100.000
2017-06-17T21:17:48.923Z,100.000
2017-06-17T21:20:44.143Z,100.000
2017-06-17T21:23:39.337Z,100.000
2017-06-17T21:26:34.621Z,100.000
2017-06-17T21:29:29.779Z,100.000
2017-06-17T21:32:25.077Z,100.000
2017-06-17T21:35:20.080Z,100.000
2017-06-17T21:40:42.110Z,100.000
2017-06-17T21:43:27.004Z,100.000
2017-06-17T21:46:23.354Z,100.000
2017-06-17T21:49:16.570Z,100.000
2017-06-17T21:52:22.953Z,100.000
2017-06-17T22:02:56.491Z,100.000
2017-06-17T22:07:22.264Z,100.000
2017-06-17T22:10:07.056Z,100.000
2017-06-17T22:21:52.526Z,100.000
2017-06-17T22:25:00.941Z,100.000
2017-06-17T22:37:57.090Z,100.000
2017-06-17T22:57:15.382Z,100.000
2017-06-17T23:07:19.901Z,100.000
2017-06-17T23:27:23.409Z,100.000
